WZZ84 LHBP-EDDB
Flight info
| Callsign | WZZ84 |
|---|---|
| Flight time | 1h 6m |
| Altitude | 34000 |
| Route | BADOV DCT MAVOR DCT KATQA DCT ODLIV DCT BEFRE T204 IVDUF/N0447F300 T204 NUKRO |
| Aircraft | A321/M-SDE3FGHIRWY/LB1 |
Departure
| Time | 2026-05-05 08:19 |
|---|---|
| Airport | Budapest Liszt Ferenc International Airport (LHBP) |
Arrival
| Time | 2026-05-05 09:26 |
|---|---|
| Airport | Berlin Brandenburg Airport (EDDB) |
| Time | Latitude | Longitude | Altitude | Speed | Heading |
|---|---|---|---|---|---|
| 2026-05-05 07:49 | 47.43563 | 19.26391 | 458 ft | 0 kts | 222° |
| 2026-05-05 08:06 | 47.43568 | 19.26397 | 457 ft | 3 kts | 222° |
| 2026-05-05 08:07 | 47.43582 | 19.26416 | 457 ft | 3 kts | 237° |
| 2026-05-05 08:07 | 47.43590 | 19.26442 | 457 ft | 3 kts | 267° |
| 2026-05-05 08:07 | 47.43588 | 19.26471 | 455 ft | 3 kts | 297° |
| 2026-05-05 08:07 | 47.43581 | 19.26487 | 457 ft | 0 kts | 310° |
| 2026-05-05 08:10 | 47.43584 | 19.26482 | 457 ft | 1 kts | 310° |
| 2026-05-05 08:10 | 47.43592 | 19.26468 | 457 ft | 2 kts | 310° |
| 2026-05-05 08:10 | 47.43605 | 19.26445 | 457 ft | 3 kts | 310° |
| 2026-05-05 08:11 | 47.43624 | 19.26414 | 457 ft | 4 kts | 312° |
| 2026-05-05 08:11 | 47.43647 | 19.26376 | 457 ft | 5 kts | 312° |
| 2026-05-05 08:11 | 47.43671 | 19.26328 | 457 ft | 6 kts | 297° |
| 2026-05-05 08:11 | 47.43678 | 19.26260 | 457 ft | 7 kts | 269° |
| 2026-05-05 08:12 | 47.43677 | 19.26209 | 457 ft | 8 kts | 267° |
| 2026-05-05 08:12 | 47.43675 | 19.26124 | 457 ft | 9 kts | 269° |
| 2026-05-05 08:12 | 47.43696 | 19.26038 | 456 ft | 10 kts | 307° |
| 2026-05-05 08:12 | 47.43734 | 19.25953 | 455 ft | 10 kts | 285° |
| 2026-05-05 08:13 | 47.43703 | 19.25866 | 457 ft | 10 kts | 221° |
| 2026-05-05 08:13 | 47.43647 | 19.25793 | 457 ft | 11 kts | 222° |
| 2026-05-05 08:13 | 47.43587 | 19.25713 | 457 ft | 12 kts | 222° |
| 2026-05-05 08:13 | 47.43525 | 19.25630 | 457 ft | 12 kts | 221° |
| 2026-05-05 08:14 | 47.43459 | 19.25542 | 457 ft | 13 kts | 222° |
| 2026-05-05 08:14 | 47.43390 | 19.25450 | 457 ft | 14 kts | 222° |
| 2026-05-05 08:14 | 47.43329 | 19.25453 | 457 ft | 10 kts | 138° |
| 2026-05-05 08:14 | 47.43293 | 19.25537 | 456 ft | 10 kts | 97° |
| 2026-05-05 08:15 | 47.43332 | 19.25617 | 457 ft | 10 kts | 40° |
| 2026-05-05 08:15 | 47.43388 | 19.25689 | 455 ft | 11 kts | 41° |
| 2026-05-05 08:15 | 47.43447 | 19.25769 | 457 ft | 12 kts | 43° |
| 2026-05-05 08:15 | 47.43509 | 19.25853 | 457 ft | 13 kts | 42° |
| 2026-05-05 08:16 | 47.43575 | 19.25941 | 457 ft | 13 kts | 42° |
| 2026-05-05 08:16 | 47.43636 | 19.26022 | 456 ft | 10 kts | 41° |
| 2026-05-05 08:16 | 47.43699 | 19.26027 | 457 ft | 10 kts | 327° |
| 2026-05-05 08:16 | 47.43753 | 19.25967 | 457 ft | 10 kts | 352° |
| 2026-05-05 08:17 | 47.43813 | 19.26017 | 456 ft | 10 kts | 42° |
| 2026-05-05 08:17 | 47.43868 | 19.26091 | 458 ft | 11 kts | 42° |
| 2026-05-05 08:17 | 47.43926 | 19.26170 | 457 ft | 11 kts | 42° |
| 2026-05-05 08:17 | 47.43985 | 19.26249 | 459 ft | 11 kts | 42° |
| 2026-05-05 08:18 | 47.44041 | 19.26330 | 463 ft | 12 kts | 51° |
| 2026-05-05 08:18 | 47.44072 | 19.26434 | 471 ft | 11 kts | 75° |
| 2026-05-05 08:18 | 47.44079 | 19.26502 | 469 ft | 5 kts | 102° |
| 2026-05-05 08:18 | 47.44051 | 19.26554 | 469 ft | 9 kts | 133° |
| 2026-05-05 08:19 | 47.43859 | 19.26857 | 472 ft | 75 kts | 132° |
| 2026-05-05 08:19 | 47.43363 | 19.27648 | 464 ft | 134 kts | 133° |
| 2026-05-05 08:19 | 47.42635 | 19.28847 | 523 ft | 172 kts | 136° |
| 2026-05-05 08:19 | 47.41895 | 19.30144 | 1232 ft | 163 kts | 128° |
| 2026-05-05 08:20 | 47.41336 | 19.31613 | 1893 ft | 165 kts | 123° |
| 2026-05-05 08:20 | 47.40797 | 19.33094 | 2630 ft | 163 kts | 124° |
| 2026-05-05 08:20 | 47.40204 | 19.34691 | 2866 ft | 189 kts | 122° |
| 2026-05-05 08:20 | 47.39579 | 19.36507 | 3085 ft | 210 kts | 121° |
| 2026-05-05 08:21 | 47.38924 | 19.38543 | 3406 ft | 226 kts | 118° |
| 2026-05-05 08:21 | 47.38432 | 19.40825 | 3818 ft | 249 kts | 95° |
| 2026-05-05 08:21 | 47.38898 | 19.43393 | 4223 ft | 274 kts | 58° |
| 2026-05-05 08:21 | 47.40183 | 19.45534 | 4928 ft | 283 kts | 43° |
| 2026-05-05 08:22 | 47.41718 | 19.47404 | 5649 ft | 288 kts | 38° |
| 2026-05-05 08:22 | 47.43315 | 19.49234 | 6394 ft | 293 kts | 35° |
| 2026-05-05 08:22 | 47.45132 | 19.50503 | 7000 ft | 296 kts | 11° |
| 2026-05-05 08:22 | 47.47179 | 19.50600 | 7634 ft | 296 kts | 346° |
| 2026-05-05 08:23 | 47.49081 | 19.49490 | 8253 ft | 295 kts | 322° |
| 2026-05-05 08:23 | 47.50673 | 19.47574 | 8932 ft | 296 kts | 316° |
| 2026-05-05 08:23 | 47.52242 | 19.45572 | 9579 ft | 300 kts | 316° |
| 2026-05-05 08:23 | 47.53831 | 19.43541 | 10209 ft | 305 kts | 316° |
| 2026-05-05 08:24 | 47.55496 | 19.41407 | 10357 ft | 328 kts | 316° |
| 2026-05-05 08:24 | 47.57279 | 19.39125 | 10483 ft | 349 kts | 316° |
| 2026-05-05 08:24 | 47.59172 | 19.36715 | 10618 ft | 368 kts | 316° |
| 2026-05-05 08:24 | 47.61143 | 19.34214 | 11095 ft | 376 kts | 317° |
| 2026-05-05 08:25 | 47.63140 | 19.31687 | 11698 ft | 380 kts | 317° |
| 2026-05-05 08:25 | 47.65157 | 19.29131 | 12323 ft | 383 kts | 316° |
| 2026-05-05 08:25 | 47.67188 | 19.26550 | 12942 ft | 386 kts | 316° |
| 2026-05-05 08:25 | 47.69235 | 19.23940 | 13564 ft | 389 kts | 316° |
| 2026-05-05 08:26 | 47.71295 | 19.21307 | 14146 ft | 392 kts | 316° |
| 2026-05-05 08:26 | 47.73369 | 19.18652 | 14698 ft | 395 kts | 316° |
| 2026-05-05 08:26 | 47.75458 | 19.15980 | 15278 ft | 398 kts | 317° |
| 2026-05-05 08:26 | 47.77561 | 19.13292 | 15868 ft | 400 kts | 317° |
| 2026-05-05 08:27 | 47.79682 | 19.10581 | 16460 ft | 403 kts | 316° |
| 2026-05-05 08:27 | 47.81813 | 19.07845 | 17047 ft | 406 kts | 316° |
| 2026-05-05 08:27 | 47.83925 | 19.05126 | 17616 ft | 408 kts | 316° |
| 2026-05-05 08:27 | 47.86082 | 19.02345 | 18195 ft | 411 kts | 316° |
| 2026-05-05 08:28 | 47.88248 | 18.99551 | 18703 ft | 414 kts | 316° |
| 2026-05-05 08:28 | 47.90434 | 18.96731 | 19190 ft | 416 kts | 316° |
| 2026-05-05 08:28 | 47.92627 | 18.93895 | 19678 ft | 419 kts | 316° |
| 2026-05-05 08:28 | 47.94835 | 18.91039 | 20145 ft | 421 kts | 316° |
| 2026-05-05 08:29 | 47.97048 | 18.88168 | 20593 ft | 423 kts | 316° |
| 2026-05-05 08:29 | 47.99278 | 18.85273 | 21046 ft | 425 kts | 317° |
| 2026-05-05 08:29 | 48.01519 | 18.82360 | 21494 ft | 428 kts | 316° |
| 2026-05-05 08:30 | 48.05701 | 18.76003 | 22350 ft | 431 kts | 311° |
| 2026-05-05 08:30 | 48.07776 | 18.72756 | 22776 ft | 433 kts | 311° |
| 2026-05-05 08:30 | 48.09864 | 18.69487 | 23179 ft | 436 kts | 311° |
| 2026-05-05 08:30 | 48.11959 | 18.66200 | 23574 ft | 438 kts | 311° |
| 2026-05-05 08:31 | 48.14067 | 18.62889 | 23916 ft | 440 kts | 311° |
| 2026-05-05 08:31 | 48.16186 | 18.59558 | 24257 ft | 442 kts | 311° |
| 2026-05-05 08:31 | 48.18314 | 18.56218 | 24600 ft | 444 kts | 311° |
| 2026-05-05 08:31 | 48.20451 | 18.52858 | 24940 ft | 446 kts | 311° |
| 2026-05-05 08:32 | 48.22598 | 18.49475 | 25279 ft | 448 kts | 311° |
| 2026-05-05 08:32 | 48.24747 | 18.46080 | 25610 ft | 450 kts | 311° |
| 2026-05-05 08:32 | 48.26902 | 18.42666 | 25932 ft | 452 kts | 311° |
| 2026-05-05 08:32 | 48.29069 | 18.39232 | 26243 ft | 454 kts | 311° |
| 2026-05-05 08:33 | 48.31242 | 18.35784 | 26555 ft | 455 kts | 311° |
| 2026-05-05 08:33 | 48.33423 | 18.32320 | 26864 ft | 457 kts | 311° |
| 2026-05-05 08:33 | 48.35609 | 18.28841 | 27194 ft | 459 kts | 311° |
| 2026-05-05 08:33 | 48.37805 | 18.25339 | 27506 ft | 461 kts | 310° |
| 2026-05-05 08:34 | 48.40007 | 18.21827 | 27838 ft | 463 kts | 311° |
| 2026-05-05 08:34 | 48.42223 | 18.18298 | 28138 ft | 464 kts | 311° |
| 2026-05-05 08:34 | 48.44434 | 18.14775 | 28590 ft | 463 kts | 310° |
| 2026-05-05 08:34 | 48.46641 | 18.11256 | 29055 ft | 461 kts | 310° |
| 2026-05-05 08:35 | 48.48837 | 18.07746 | 29494 ft | 460 kts | 310° |
| 2026-05-05 08:35 | 48.51025 | 18.04240 | 29937 ft | 458 kts | 310° |
| 2026-05-05 08:35 | 48.53205 | 18.00740 | 30318 ft | 457 kts | 310° |
| 2026-05-05 08:35 | 48.55375 | 17.97247 | 30681 ft | 456 kts | 311° |
| 2026-05-05 08:36 | 48.57542 | 17.93754 | 31076 ft | 455 kts | 310° |
| 2026-05-05 08:36 | 48.59669 | 17.90315 | 31433 ft | 453 kts | 310° |
| 2026-05-05 08:36 | 48.61846 | 17.86789 | 31790 ft | 452 kts | 310° |
| 2026-05-05 08:36 | 48.63987 | 17.83316 | 32137 ft | 451 kts | 310° |
| 2026-05-05 08:37 | 48.66119 | 17.79855 | 32495 ft | 450 kts | 310° |
| 2026-05-05 08:37 | 48.68222 | 17.76439 | 32846 ft | 449 kts | 310° |
| 2026-05-05 08:37 | 48.70344 | 17.72990 | 33204 ft | 448 kts | 310° |
| 2026-05-05 08:37 | 48.72466 | 17.69544 | 33546 ft | 447 kts | 310° |
| 2026-05-05 08:38 | 48.74579 | 17.66104 | 33874 ft | 446 kts | 310° |
| 2026-05-05 08:38 | 48.78795 | 17.59219 | 33930 ft | 445 kts | 310° |
| 2026-05-05 08:39 | 48.83007 | 17.52347 | 33894 ft | 445 kts | 311° |
| 2026-05-05 08:39 | 48.87403 | 17.45705 | 33896 ft | 446 kts | 313° |
| 2026-05-05 08:40 | 48.91904 | 17.39205 | 33893 ft | 447 kts | 313° |
| 2026-05-05 08:40 | 48.96387 | 17.32652 | 33889 ft | 447 kts | 313° |
| 2026-05-05 08:41 | 49.00820 | 17.26018 | 33893 ft | 447 kts | 312° |
| 2026-05-05 08:41 | 49.05211 | 17.19320 | 33893 ft | 446 kts | 311° |
| 2026-05-05 08:42 | 49.09538 | 17.12537 | 33895 ft | 446 kts | 311° |
| 2026-05-05 08:42 | 49.13864 | 17.05738 | 33895 ft | 446 kts | 311° |
| 2026-05-05 08:43 | 49.18208 | 16.98947 | 33898 ft | 446 kts | 311° |
| 2026-05-05 08:43 | 49.22546 | 16.92156 | 33901 ft | 446 kts | 311° |
| 2026-05-05 08:44 | 49.26881 | 16.85351 | 33904 ft | 446 kts | 311° |
| 2026-05-05 08:44 | 49.31182 | 16.78582 | 33907 ft | 446 kts | 311° |
| 2026-05-05 08:45 | 49.35499 | 16.71757 | 33909 ft | 446 kts | 311° |
| 2026-05-05 08:45 | 49.39805 | 16.64918 | 33912 ft | 446 kts | 311° |
| 2026-05-05 08:46 | 49.44107 | 16.58075 | 33914 ft | 445 kts | 311° |
| 2026-05-05 08:46 | 49.48405 | 16.51237 | 33908 ft | 445 kts | 311° |
| 2026-05-05 08:47 | 49.52699 | 16.44388 | 33906 ft | 444 kts | 311° |
| 2026-05-05 08:47 | 49.56977 | 16.37530 | 33904 ft | 444 kts | 311° |
| 2026-05-05 08:48 | 49.61256 | 16.30662 | 33903 ft | 444 kts | 311° |
| 2026-05-05 08:48 | 49.65529 | 16.23787 | 33902 ft | 444 kts | 311° |
| 2026-05-05 08:49 | 49.69799 | 16.16892 | 33901 ft | 443 kts | 311° |
| 2026-05-05 08:49 | 49.74053 | 16.10002 | 33898 ft | 443 kts | 311° |
| 2026-05-05 08:50 | 49.78274 | 16.03153 | 33895 ft | 442 kts | 311° |
| 2026-05-05 08:50 | 49.82512 | 15.96252 | 33895 ft | 442 kts | 311° |
| 2026-05-05 08:51 | 49.86742 | 15.89341 | 33897 ft | 441 kts | 311° |
| 2026-05-05 08:51 | 49.90960 | 15.82431 | 33894 ft | 441 kts | 311° |
| 2026-05-05 08:52 | 49.95551 | 15.76168 | 33893 ft | 445 kts | 330° |
| 2026-05-05 08:52 | 50.01294 | 15.72493 | 33894 ft | 447 kts | 335° |
| 2026-05-05 08:53 | 50.07078 | 15.68951 | 33887 ft | 447 kts | 335° |
| 2026-05-05 08:53 | 50.12851 | 15.65391 | 33890 ft | 446 kts | 335° |
| 2026-05-05 08:54 | 50.18624 | 15.61833 | 33892 ft | 446 kts | 335° |
| 2026-05-05 08:54 | 50.24173 | 15.57711 | 33885 ft | 440 kts | 324° |
| 2026-05-05 08:55 | 50.29244 | 15.52675 | 33871 ft | 420 kts | 324° |
| 2026-05-05 08:55 | 50.34221 | 15.47672 | 33876 ft | 432 kts | 324° |
| 2026-05-05 08:56 | 50.39337 | 15.42502 | 33877 ft | 439 kts | 324° |
| 2026-05-05 08:56 | 50.44451 | 15.37353 | 33874 ft | 440 kts | 324° |
| 2026-05-05 08:57 | 50.49611 | 15.32154 | 33559 ft | 441 kts | 324° |
| 2026-05-05 08:57 | 50.52187 | 15.29550 | 33283 ft | 441 kts | 324° |
| 2026-05-05 08:57 | 50.54765 | 15.26935 | 33003 ft | 441 kts | 323° |
| 2026-05-05 08:57 | 50.57346 | 15.24310 | 32744 ft | 442 kts | 323° |
| 2026-05-05 08:58 | 50.59925 | 15.21684 | 32468 ft | 442 kts | 323° |
| 2026-05-05 08:58 | 50.62510 | 15.19050 | 32215 ft | 443 kts | 323° |
| 2026-05-05 08:58 | 50.65095 | 15.16412 | 31951 ft | 443 kts | 324° |
| 2026-05-05 08:58 | 50.66843 | 15.14627 | 31780 ft | 444 kts | 323° |
| 2026-05-05 08:59 | 50.69434 | 15.11977 | 31513 ft | 444 kts | 323° |
| 2026-05-05 08:59 | 50.72030 | 15.09325 | 31271 ft | 445 kts | 324° |
| 2026-05-05 08:59 | 50.74636 | 15.06663 | 31017 ft | 446 kts | 324° |
| 2026-05-05 08:59 | 50.77203 | 15.04035 | 30774 ft | 446 kts | 324° |
| 2026-05-05 09:00 | 50.79804 | 15.01368 | 30520 ft | 446 kts | 323° |
| 2026-05-05 09:00 | 50.82412 | 14.98688 | 30274 ft | 447 kts | 323° |
| 2026-05-05 09:00 | 50.85018 | 14.96003 | 30030 ft | 447 kts | 323° |
| 2026-05-05 09:00 | 50.87625 | 14.93310 | 29769 ft | 447 kts | 323° |
| 2026-05-05 09:01 | 50.90227 | 14.90617 | 29486 ft | 448 kts | 323° |
| 2026-05-05 09:01 | 50.92840 | 14.87911 | 29203 ft | 449 kts | 323° |
| 2026-05-05 09:01 | 50.95454 | 14.85205 | 28920 ft | 450 kts | 323° |
| 2026-05-05 09:01 | 50.98077 | 14.82487 | 28654 ft | 451 kts | 323° |
| 2026-05-05 09:02 | 51.00700 | 14.79765 | 28390 ft | 450 kts | 323° |
| 2026-05-05 09:02 | 51.03318 | 14.77046 | 28113 ft | 449 kts | 323° |
| 2026-05-05 09:02 | 51.05931 | 14.74331 | 27839 ft | 448 kts | 323° |
| 2026-05-05 09:02 | 51.08541 | 14.71617 | 27579 ft | 447 kts | 323° |
| 2026-05-05 09:03 | 51.11135 | 14.68910 | 27319 ft | 446 kts | 323° |
| 2026-05-05 09:03 | 51.13724 | 14.66200 | 27059 ft | 444 kts | 323° |
| 2026-05-05 09:03 | 51.16308 | 14.63492 | 26800 ft | 443 kts | 323° |
| 2026-05-05 09:03 | 51.18881 | 14.60793 | 26545 ft | 442 kts | 323° |
| 2026-05-05 09:04 | 51.21446 | 14.58102 | 26295 ft | 441 kts | 323° |
| 2026-05-05 09:04 | 51.24006 | 14.55417 | 26044 ft | 440 kts | 323° |
| 2026-05-05 09:04 | 51.26560 | 14.52736 | 25795 ft | 439 kts | 323° |
| 2026-05-05 09:04 | 51.29109 | 14.50055 | 25553 ft | 438 kts | 322° |
| 2026-05-05 09:05 | 51.31649 | 14.47376 | 25302 ft | 437 kts | 322° |
| 2026-05-05 09:05 | 51.34182 | 14.44699 | 25068 ft | 436 kts | 322° |
| 2026-05-05 09:05 | 51.36708 | 14.42024 | 24827 ft | 435 kts | 322° |
| 2026-05-05 09:05 | 51.39227 | 14.39352 | 24590 ft | 434 kts | 322° |
| 2026-05-05 09:06 | 51.41740 | 14.36678 | 24350 ft | 433 kts | 322° |
| 2026-05-05 09:06 | 51.44245 | 14.34011 | 24119 ft | 432 kts | 322° |
| 2026-05-05 09:06 | 51.46745 | 14.31351 | 23887 ft | 431 kts | 322° |
| 2026-05-05 09:06 | 51.49206 | 14.28730 | 23655 ft | 430 kts | 322° |
| 2026-05-05 09:07 | 51.51698 | 14.26074 | 23408 ft | 429 kts | 322° |
| 2026-05-05 09:07 | 51.54181 | 14.23426 | 23095 ft | 425 kts | 322° |
| 2026-05-05 09:07 | 51.56632 | 14.20812 | 22528 ft | 421 kts | 322° |
| 2026-05-05 09:07 | 51.59056 | 14.18219 | 21971 ft | 416 kts | 322° |
| 2026-05-05 09:08 | 51.61453 | 14.15649 | 21430 ft | 412 kts | 322° |
| 2026-05-05 09:08 | 51.63825 | 14.13097 | 20898 ft | 409 kts | 322° |
| 2026-05-05 09:08 | 51.66186 | 14.10558 | 20378 ft | 407 kts | 322° |
| 2026-05-05 09:08 | 51.68532 | 14.08032 | 19875 ft | 405 kts | 322° |
| 2026-05-05 09:09 | 51.70866 | 14.05518 | 19371 ft | 403 kts | 322° |
| 2026-05-05 09:09 | 51.73192 | 14.03009 | 18894 ft | 401 kts | 322° |
| 2026-05-05 09:09 | 51.75504 | 14.00510 | 18419 ft | 400 kts | 322° |
| 2026-05-05 09:09 | 51.77811 | 13.98014 | 17913 ft | 399 kts | 322° |
| 2026-05-05 09:10 | 51.80109 | 13.95527 | 17419 ft | 396 kts | 322° |
| 2026-05-05 09:10 | 51.82383 | 13.93061 | 16927 ft | 392 kts | 322° |
| 2026-05-05 09:10 | 51.84645 | 13.90605 | 16445 ft | 390 kts | 322° |
| 2026-05-05 09:10 | 51.86891 | 13.88159 | 15952 ft | 387 kts | 322° |
| 2026-05-05 09:11 | 51.89117 | 13.85730 | 15441 ft | 385 kts | 322° |
| 2026-05-05 09:11 | 51.91333 | 13.83311 | 14939 ft | 382 kts | 322° |
| 2026-05-05 09:11 | 51.93497 | 13.80947 | 14424 ft | 380 kts | 322° |
| 2026-05-05 09:11 | 51.95707 | 13.78535 | 13904 ft | 377 kts | 323° |
| 2026-05-05 09:12 | 51.97878 | 13.76161 | 13352 ft | 375 kts | 323° |
| 2026-05-05 09:12 | 52.00000 | 13.73841 | 12825 ft | 371 kts | 323° |
| 2026-05-05 09:12 | 52.02127 | 13.71509 | 12311 ft | 367 kts | 323° |
| 2026-05-05 09:12 | 52.04259 | 13.69164 | 11790 ft | 363 kts | 323° |
| 2026-05-05 09:13 | 52.06310 | 13.66887 | 11284 ft | 359 kts | 320° |
| 2026-05-05 09:13 | 52.08104 | 13.64145 | 10787 ft | 351 kts | 306° |
| 2026-05-05 09:13 | 52.09390 | 13.60887 | 10614 ft | 334 kts | 293° |
| 2026-05-05 09:13 | 52.10231 | 13.57476 | 10487 ft | 319 kts | 288° |
| 2026-05-05 09:14 | 52.11009 | 13.54162 | 10356 ft | 307 kts | 288° |
| 2026-05-05 09:14 | 52.11758 | 13.50991 | 10245 ft | 295 kts | 288° |
| 2026-05-05 09:14 | 52.12481 | 13.47924 | 10102 ft | 285 kts | 288° |
| 2026-05-05 09:14 | 52.13181 | 13.44930 | 9825 ft | 281 kts | 288° |
| 2026-05-05 09:15 | 52.13870 | 13.41959 | 9473 ft | 279 kts | 288° |
| 2026-05-05 09:15 | 52.14550 | 13.39009 | 9100 ft | 278 kts | 288° |
| 2026-05-05 09:15 | 52.15225 | 13.36078 | 8733 ft | 276 kts | 288° |
| 2026-05-05 09:15 | 52.15896 | 13.33157 | 8374 ft | 275 kts | 288° |
| 2026-05-05 09:16 | 52.16564 | 13.30248 | 8022 ft | 273 kts | 288° |
| 2026-05-05 09:16 | 52.17227 | 13.27356 | 7673 ft | 272 kts | 288° |
| 2026-05-05 09:16 | 52.17890 | 13.24478 | 7330 ft | 271 kts | 288° |
| 2026-05-05 09:16 | 52.18475 | 13.21586 | 6993 ft | 267 kts | 279° |
| 2026-05-05 09:17 | 52.18581 | 13.18600 | 6657 ft | 263 kts | 263° |
| 2026-05-05 09:17 | 52.18155 | 13.15715 | 6339 ft | 261 kts | 248° |
| 2026-05-05 09:17 | 52.17477 | 13.12978 | 5968 ft | 261 kts | 248° |
| 2026-05-05 09:17 | 52.16813 | 13.10259 | 5766 ft | 254 kts | 248° |
| 2026-05-05 09:18 | 52.16281 | 13.07580 | 5633 ft | 246 kts | 262° |
| 2026-05-05 09:18 | 52.16386 | 13.04842 | 5496 ft | 241 kts | 286° |
| 2026-05-05 09:18 | 52.17172 | 13.02464 | 5323 ft | 241 kts | 310° |
| 2026-05-05 09:18 | 52.18513 | 13.00833 | 5052 ft | 243 kts | 336° |
| 2026-05-05 09:19 | 52.20160 | 13.00280 | 4713 ft | 244 kts | 1° |
| 2026-05-05 09:19 | 52.21800 | 13.00928 | 4356 ft | 245 kts | 27° |
| 2026-05-05 09:19 | 52.23107 | 13.02656 | 4070 ft | 242 kts | 53° |
| 2026-05-05 09:19 | 52.24049 | 13.04935 | 4004 ft | 244 kts | 56° |
| 2026-05-05 09:20 | 52.24988 | 13.07213 | 4004 ft | 246 kts | 56° |
| 2026-05-05 09:20 | 52.25939 | 13.09514 | 4021 ft | 234 kts | 56° |
| 2026-05-05 09:20 | 52.26826 | 13.11661 | 4005 ft | 229 kts | 56° |
| 2026-05-05 09:20 | 52.27714 | 13.13816 | 4003 ft | 229 kts | 56° |
| 2026-05-05 09:21 | 52.28601 | 13.15975 | 4010 ft | 228 kts | 56° |
| 2026-05-05 09:21 | 52.29392 | 13.18089 | 3983 ft | 207 kts | 63° |
| 2026-05-05 09:21 | 52.29971 | 13.20172 | 3765 ft | 196 kts | 68° |
| 2026-05-05 09:21 | 52.30467 | 13.22186 | 3534 ft | 188 kts | 69° |
| 2026-05-05 09:22 | 52.30939 | 13.24139 | 3292 ft | 182 kts | 69° |
| 2026-05-05 09:22 | 52.31399 | 13.26049 | 3055 ft | 178 kts | 69° |
| 2026-05-05 09:22 | 52.31846 | 13.27909 | 2814 ft | 174 kts | 69° |
| 2026-05-05 09:22 | 52.32283 | 13.29742 | 2592 ft | 172 kts | 70° |
| 2026-05-05 09:23 | 52.32715 | 13.31568 | 2332 ft | 172 kts | 70° |
| 2026-05-05 09:23 | 52.33154 | 13.33375 | 2119 ft | 171 kts | 69° |
| 2026-05-05 09:23 | 52.33600 | 13.35168 | 1910 ft | 170 kts | 69° |
| 2026-05-05 09:23 | 52.34032 | 13.36950 | 1648 ft | 167 kts | 70° |
| 2026-05-05 09:24 | 52.34446 | 13.38714 | 1473 ft | 164 kts | 70° |
| 2026-05-05 09:24 | 52.34837 | 13.40395 | 1326 ft | 158 kts | 70° |
| 2026-05-05 09:24 | 52.35242 | 13.42037 | 1064 ft | 154 kts | 69° |
| 2026-05-05 09:24 | 52.35635 | 13.43652 | 817 ft | 150 kts | 70° |
| 2026-05-05 09:25 | 52.35998 | 13.45240 | 617 ft | 148 kts | 69° |
| 2026-05-05 09:25 | 52.36365 | 13.46798 | 409 ft | 146 kts | 68° |
| 2026-05-05 09:25 | 52.36742 | 13.48341 | 210 ft | 146 kts | 71° |
| 2026-05-05 09:25 | 52.37072 | 13.49799 | 153 ft | 120 kts | 71° |
| 2026-05-05 09:26 | 52.37316 | 13.50813 | 150 ft | 71 kts | 68° |
| 2026-05-05 09:26 | 52.37439 | 13.51329 | 150 ft | 37 kts | 74° |
| 2026-05-05 09:26 | 52.37445 | 13.51678 | 150 ft | 22 kts | 99° |
| 2026-05-05 09:26 | 52.37425 | 13.51879 | 150 ft | 12 kts | 99° |
| 2026-05-05 09:27 | 52.37395 | 13.52001 | 150 ft | 12 kts | 134° |
| 2026-05-05 09:27 | 52.37323 | 13.52056 | 150 ft | 11 kts | 168° |
| 2026-05-05 09:27 | 52.37263 | 13.52006 | 150 ft | 11 kts | 245° |
| 2026-05-05 09:27 | 52.37238 | 13.51884 | 150 ft | 12 kts | 250° |
| 2026-05-05 09:28 | 52.37207 | 13.51751 | 150 ft | 13 kts | 249° |
| 2026-05-05 09:28 | 52.37173 | 13.51606 | 150 ft | 14 kts | 249° |
| 2026-05-05 09:28 | 52.37138 | 13.51496 | 150 ft | 9 kts | 221° |
| 2026-05-05 09:28 | 52.37074 | 13.51482 | 150 ft | 10 kts | 187° |
| 2026-05-05 09:29 | 52.37027 | 13.51403 | 150 ft | 11 kts | 249° |
| 2026-05-05 09:29 | 52.37000 | 13.51281 | 150 ft | 12 kts | 250° |
| 2026-05-05 09:29 | 52.36969 | 13.51148 | 150 ft | 13 kts | 248° |
| 2026-05-05 09:29 | 52.36934 | 13.51003 | 150 ft | 14 kts | 249° |
| 2026-05-05 09:30 | 52.36897 | 13.50847 | 150 ft | 15 kts | 249° |
| 2026-05-05 09:30 | 52.36859 | 13.50681 | 150 ft | 16 kts | 249° |
| 2026-05-05 09:30 | 52.36827 | 13.50547 | 150 ft | 5 kts | 238° |
| 2026-05-05 09:30 | 52.36793 | 13.50537 | 150 ft | 5 kts | 168° |
| 2026-05-05 09:31 | 52.36754 | 13.50562 | 150 ft | 7 kts | 158° |
| 2026-05-05 09:31 | 52.36740 | 13.50571 | 150 ft | 0 kts | 158° |